Latest Coastal Weather Observations for Albion Park

IDN60701

Issued at 11:41 am EDT Monday 27 March 2017 (issued every 10 minutes, with the page automatically refreshed every 10 minutes)

About coastal observations | Map of coastal stations | Coastal observations for NSW | Marine services | Other Formats
Station Details ID: 068241 Name: WOLLONGONG AIRPORT Lat: -34.56 Lon: 150.79 Height: 8.0 m
Data from the previous 72 hours. | See also: Recent months at Albion Park
Date/Time
EDT
Temp
°C
Wind Pressure Rain since
9am
mm
Weather Cloud Vis
km
Sea
Height
m
Swell
Dir  Spd
kts
Gust
kts
hPa Trend Height
m
Period
s
Dir
27/11:30am 26.6 NNE 8 11 1014.8 - 0.0 - - 10 - - - -
27/11:00am 26.1 N 8 13 1015.3 - 0.0 - - 10 - - - -
27/10:30am 24.8 N 9 13 1015.5 - 0.0 - - 10 - - - -
27/10:00am 24.1 N 9 14 1016.0 - 0.0 - - 10 - - - -
27/09:30am 23.2 N 9 14 1016.2 - 0.0 - - 10 - - - -
27/09:00am 21.8 WNW 3 9 1016.4 - 0.0 - - 10 - - - -
27/08:30am 19.1 CALM 0 0 1016.5 - 0.0 - - 10 - - - -
27/08:00am 17.5 CALM 0 0 1016.3 - 0.0 - - 10 - - - -
27/07:30am 16.2 CALM 0 2 1016.0 - 0.0 - - 10 - - - -
27/07:00am 15.7 WSW 1 3 1015.7 - 0.0 - - 10 - - - -
27/06:30am 16.0 WSW 1 4 1015.6 - 0.0 - - 10 - - - -
27/06:00am 15.9 WSW 3 5 1015.5 - 0.0 - - 8 - - - -
27/05:30am 16.3 CALM 0 0 1015.4 - 0.0 - - 10 - - - -
27/05:00am 16.4 CALM 0 0 1015.4 - 0.0 - - 10 - - - -
27/04:30am 16.6 CALM 0 0 1015.6 - 0.0 - - 10 - - - -
27/04:00am 16.7 CALM 0 0 1015.7 - 0.0 - - 10 - - - -
27/03:30am 17.0 CALM 0 0 1015.8 - 0.0 - - 10 - - - -
27/03:00am 17.4 CALM 0 0 1016.2 - 0.0 - - 8 - - - -
27/02:30am 17.7 CALM 0 0 1016.4 - 0.0 - - 10 - - - -
27/02:00am 18.1 CALM 0 0 1016.8 - 0.0 - - 10 - - - -
27/01:30am 18.0 CALM 0 0 1017.1 - 0.0 - - 10 - - - -
27/01:00am 18.2 CALM 0 0 1017.3 - 0.0 - - 10 - - - -
27/12:30am 18.5 CALM 0 0 1017.4 - 0.0 - - 10 - - - -
27/12:00am 18.8 CALM 0 0 1017.5 - 0.0 - - 10 - - - -
 
Date/Time
EDT
Temp
°C
Wind Pressure Rain since
9am
mm
Weather Cloud Vis
km
Sea
Height
m
Swell
Dir  Spd
kts
Gust
kts
hPa Trend Height
m
Period
s
Dir
26/11:30pm 19.3 CALM 0 0 1017.5 - 0.0 - - 10 - - - -
26/11:00pm 19.6 WSW 3 4 1017.8 - 0.0 - Partly cloudy 10 - - - -
26/10:56pm 19.5 WSW 4 4 1017.8 - 0.0 - Partly cloudy 10 - - - -
26/10:30pm 19.8 WNW 5 6 1017.7 - 0.0 - Partly cloudy 10 - - - -
26/10:27pm 19.9 WNW 5 6 1017.7 - 0.0 - Partly cloudy 10 - - - -
26/10:00pm 20.0 W 4 4 1017.6 - 0.0 - - 10 - - - -
26/09:30pm 20.5 CALM 0 0 1017.3 - 0.0 - - 10 - - - -
26/09:01pm 21.1 WNW 5 6 1017.1 - 0.0 - Partly cloudy 10 - - - -
26/09:00pm 21.1 WNW 4 6 1017.1 - 0.0 - Mostly clear 10 - - - -
26/08:30pm 22.7 NW 4 6 1016.7 - 0.0 - Partly cloudy 10 - - - -
26/08:01pm 22.6 NNW 4 6 1016.2 - 0.0 - Partly cloudy 10 - - - -
26/08:00pm 22.6 NNW 4 6 1016.2 - 0.0 - Partly cloudy 10 - - - -
26/07:30pm 23.0 N 4 6 1015.9 - 0.0 - - 10 - - - -
26/07:00pm 23.3 NNE 5 8 1015.6 - 0.0 - Partly cloudy 10 - - - -
26/06:30pm 23.7 NE 7 9 1015.4 - 0.0 - - 10 - - - -
26/06:00pm 24.3 NE 8 11 1015.1 - 0.0 - - 10 - - - -
26/05:30pm 25.0 NE 9 10 1014.8 - 0.0 - - 10 - - - -
26/05:00pm 25.3 NE 9 12 1014.6 - 0.0 - - 10 - - - -
26/04:30pm 25.3 ENE 9 13 1014.5 - 0.0 - - 10 - - - -
26/04:00pm 25.6 NE 9 12 1014.5 - 0.0 - - 10 - - - -
26/03:30pm 25.8 NE 11 13 1014.6 - 0.0 - - 10 - - - -
26/03:00pm 26.1 NE 9 12 1014.7 - 0.0 - - 10 - - - -
26/02:30pm 25.4 NE 10 11 1014.7 - 0.0 - - 10 - - - -
26/02:00pm 25.5 NE 9 11 1014.9 - 0.0 - - 10 - - - -
26/01:30pm 25.7 NE 8 9 1015.2 - 0.0 - - 10 - - - -
26/01:00pm 25.4 NE 9 10 1015.4 - 0.0 - - 10 - - - -
26/12:30pm 25.4 NE 8 9 1015.8 - 0.0 - - 10 - - - -
26/12:00pm 25.6 NE 7 9 1016.0 - 0.0 - - 10 - - - -
26/11:30am 25.3 NE 6 8 1016.1 - 0.0 - - 10 - - - -
26/11:00am 25.1 NE 6 7 1016.2 - 0.0 - - 10 - - - -
26/10:30am 24.7 ENE 4 6 1016.2 - 0.0 - - 10 - - - -
26/10:00am 23.3 CALM 0 4 1016.1 - 0.0 - - 10 - - - -
26/09:30am 21.1 CALM 0 0 1015.7 - 0.0 - - 10 - - - -
26/09:00am 19.8 W 3 4 1015.7 - 7.8 - - 10 - - - -
26/08:30am 18.4 W 2 3 1015.4 - 7.8 - - 10 - - - -
26/08:00am 17.1 W 3 4 1015.3 - 7.8 - - 10 - - - -
26/07:50am 16.2 W 3 4 1015.2 - 7.8 - - 7 - - - -
26/07:31am 15.3 W 4 5 1015.0 - 7.8 - - 5 - - - -
26/07:30am 15.3 W 4 5 1015.0 - 7.8 - - 6 - - - -
26/07:11am 15.1 CALM 0 0 1014.6 - 7.8 - - 5 - - - -
26/07:00am 15.1 CALM 0 2 1014.5 - 7.8 - - 10 - - - -
26/06:30am 15.2 W 4 5 1014.2 - 7.8 - - 10 - - - -
26/06:19am 15.1 W 3 4 1014.2 - 7.8 - - 10 - - - -
26/06:00am 15.0 W 4 5 1014.0 - 7.8 - - 5 - - - -
26/05:51am 15.0 W 1 5 1013.9 - 7.8 - - 5 - - - -
26/05:50am 15.1 W 1 4 1013.9 - 7.8 - - 6 - - - -
26/05:32am 15.3 CALM 0 0 1013.8 - 7.8 - - 5 - - - -
26/05:30am 15.2 CALM 0 0 1013.7 - 7.8 - - 6 - - - -
26/05:00am 15.5 W 3 4 1013.7 - 7.8 - - 7 - - - -
26/04:46am 15.7 W 3 4 1013.6 - 7.8 - - 7 - - - -
26/04:30am 15.7 W 4 5 1013.8 - 7.8 - - 3 - - - -
26/04:16am 15.8 W 3 4 1013.7 - 7.8 - Partly cloudy 5 - - - -
26/04:14am 15.9 W 3 4 1013.7 - 7.8 - Partly cloudy 6 - - - -
26/04:00am 15.7 W 5 5 1013.8 - 7.8 - Partly cloudy 5 - - - -
26/03:33am 16.0 W 1 5 1013.9 - 7.8 - - 5 - - - -
26/03:30am 16.0 CALM 0 0 1013.9 - 7.8 - - 6 - - - -
26/03:00am 16.4 W 3 4 1013.9 - 7.8 - - 7 - - - -
26/02:57am 16.3 W 3 4 1013.9 - 7.8 - - 7 - - - -
26/02:30am 16.2 W 3 4 1014.2 - 7.8 - - 4 - - - -
26/02:14am 16.3 W 2 3 1014.3 - 7.8 - - 5 - - - -
26/02:00am 16.3 W 2 4 1014.3 - 7.8 - - 7 - - - -
26/01:51am 16.4 CALM 0 0 1014.2 - 7.8 - - 8 - - - -
26/01:30am 16.3 W 3 4 1014.2 - 7.8 - - 5 - - - -
26/01:13am 16.7 CALM 0 0 1014.3 - 7.8 - - 5 - - - -
26/01:00am 16.7 W 1 4 1014.4 - 7.8 - - 7 - - - -
26/12:30am 16.9 W 3 4 1014.6 - 7.8 - - 6 - - - -
26/12:00am 17.4 CALM 0 3 1014.8 - 7.8 - - 9 - - - -
 
Date/Time
EDT
Temp
°C
Wind Pressure Rain since
9am
mm
Weather Cloud Vis
km
Sea
Height
m
Swell
Dir  Spd
kts
Gust
kts
hPa Trend Height
m
Period
s
Dir
25/11:30pm 17.6 CALM 0 0 1014.9 - 7.8 - - 10 - - - -
25/11:00pm 17.7 WNW 4 5 1014.9 - 7.8 - - 10 - - - -
25/10:30pm 18.0 WNW 4 5 1014.9 - 7.8 - - 10 - - - -
25/10:00pm 18.6 CALM 0 0 1014.9 - 7.8 - Partly cloudy 10 - - - -
25/09:30pm 18.8 W 4 5 1015.1 - 7.8 - Partly cloudy 10 - - - -
25/09:00pm 19.2 W 4 6 1014.8 - 7.8 - Cloudy 10 - - - -
25/08:30pm 19.4 W 4 5 1014.3 - 7.8 - Partly cloudy 10 - - - -
25/08:00pm 19.6 WSW 4 5 1014.3 - 7.8 - Partly cloudy 10 - - - -
25/07:30pm 19.7 W 4 5 1014.1 - 7.8 - Cloudy 10 - - - -
25/07:00pm 19.7 CALM 0 0 1014.1 - 7.8 - Cloudy 10 - - - -
25/06:30pm 19.6 NW 4 4 1014.0 - 7.8 - Cloudy 10 - - - -
25/06:00pm 19.5 CALM 0 0 1013.9 - 7.8 Recent precip. Cloudy 10 - - - -
25/05:30pm 19.4 SW 3 4 1014.0 - 7.8 - Partly cloudy 10 - - - -
25/05:00pm 19.1 SW 1 3 1013.8 - 7.6 - Partly cloudy 10 - - - -
25/04:30pm 19.1 SW 1 4 1013.9 - 7.4 - Partly cloudy 10 - - - -
25/04:27pm 19.1 SW 3 4 1013.9 - 7.4 - Partly cloudy 8 - - - -
25/04:00pm 19.2 WSW 3 6 1014.3 - 6.4 - Partly cloudy 3 - - - -
25/03:46pm 19.3 CALM 0 2 1014.4 - 5.0 - Partly cloudy 5 - - - -
25/03:30pm 19.3 SSW 4 5 1014.7 - 4.4 - Cloudy 7 - - - -
25/03:09pm 19.7 SSW 5 6 1014.9 - 4.2 - Partly cloudy 7 - - - -
25/03:00pm 19.7 SSW 4 6 1014.9 - 4.0 Rain Partly cloudy 6 - - - -
25/02:45pm 20.0 W 4 7 1014.7 - 2.8 - Partly cloudy 5 - - - -
25/02:30pm 20.2 SW 4 6 1014.7 - 2.0 - Partly cloudy 7 - - - -
25/02:26pm 20.1 WSW 5 6 1014.6 - 1.8 - Partly cloudy 10 - - - -
25/02:00pm 21.0 NW 6 10 1014.8 - 0.6 - Partly cloudy 5 - - - -
25/01:57pm 21.4 NW 7 11 1014.9 - 0.4 - Partly cloudy 5 - - - -
25/01:30pm 23.3 NNW 8 10 1015.2 - 0.0 - Partly cloudy 10 - - - -
25/01:00pm 23.5 N 7 11 1015.4 - 0.0 - Partly cloudy 10 - - - -
25/12:30pm 24.2 N 8 12 1015.8 - 0.0 - Partly cloudy 10 - - - -
25/12:00pm 23.7 N 9 12 1016.7 - 0.0 - Mostly clear 10 - - - -
25/11:30am 22.8 N 6 9 1017.1 - 0.0 - Partly cloudy 10 - - - -
25/11:00am 22.2 N 7 10 1017.4 - 0.0 - - 10 - - - -
25/10:30am 22.5 NNW 7 9 1017.5 - 0.0 - - 10 - - - -
25/10:00am 22.6 NNW 4 6 1017.4 - 0.0 - - 10 - - - -
25/09:30am 21.2 WNW 4 6 1017.5 - 0.0 - - 10 - - - -
25/09:00am 19.6 W 5 7 1017.6 - 0.2 - - 10 - - - -
25/08:30am 17.7 W 3 4 1017.4 - 0.2 - - 10 - - - -
25/08:00am 17.1 WSW 3 3 1017.3 - 0.2 - - 10 - - - -
25/07:30am 16.6 WSW 1 4 1017.2 - 0.2 - Partly cloudy 10 - - - -
25/07:00am 16.8 CALM 0 0 1017.0 - 0.2 - Partly cloudy 10 - - - -
25/06:30am 17.1 W 6 7 1017.3 - 0.2 - Partly cloudy 10 - - - -
25/06:00am 17.5 W 1 3 1017.3 - 0.2 - Mostly cloudy 10 - - - -
25/05:30am 17.7 W 5 6 1017.7 - 0.2 - Partly cloudy 10 - - - -
25/05:00am 17.8 W 5 6 1017.3 - 0.2 - Partly cloudy 10 - - - -
25/04:30am 17.9 W 4 5 1017.4 - 0.2 - Partly cloudy 10 - - - -
25/04:00am 18.1 WSW 3 4 1017.5 - 0.2 - Cloudy 10 - - - -
25/03:30am 17.9 W 4 5 1017.6 - 0.2 - Cloudy 10 - - - -
25/03:00am 18.0 W 3 4 1017.8 - 0.2 - Cloudy 10 - - - -
25/02:30am 18.0 W 5 6 1017.8 - 0.2 - Cloudy 10 - - - -
25/02:00am 18.0 W 5 8 1018.6 - 0.2 - Cloudy 10 - - - -
25/01:30am 18.1 W 7 8 1019.1 - 0.2 - Cloudy 10 - - - -
25/01:00am 18.1 W 2 5 1018.9 - 0.2 - Partly cloudy 10 - - - -
25/12:30am 18.2 W 7 8 1019.9 - 0.2 - Cloudy 10 - - - -
25/12:00am 18.3 W 3 4 1019.8 - 0.2 - Cloudy 10 - - - -
 
Date/Time
EDT
Temp
°C
Wind Pressure Rain since
9am
mm
Weather Cloud Vis
km
Sea
Height
m
Swell
Dir  Spd
kts
Gust
kts
hPa Trend Height
m
Period
s
Dir
24/11:30pm 18.4 WSW 5 6 1020.1 - 0.2 - Cloudy 10 - - - -
24/11:00pm 18.6 WSW 4 4 1020.5 - 0.2 - Cloudy 10 - - - -
24/10:30pm 18.5 WSW 4 5 1020.6 - 0.2 - Cloudy 10 - - - -
24/10:00pm 18.6 W 5 6 1020.4 - 0.2 - Partly cloudy 10 - - - -
24/09:30pm 18.9 SW 3 5 1020.3 - 0.2 - Partly cloudy 10 - - - -
24/09:00pm 19.0 SW 7 8 1020.5 - 0.2 - Cloudy 10 - - - -
24/08:30pm 19.2 WSW 6 7 1020.1 - 0.2 - Partly cloudy 10 - - - -
24/08:00pm 19.8 SSW 3 6 1019.9 - 0.2 - Cloudy 10 - - - -
24/07:30pm 19.8 S 2 4 1019.8 - 0.2 - Partly cloudy 10 - - - -
24/07:00pm 20.0 S 5 6 1019.6 - 0.2 - Partly cloudy 10 - - - -
24/06:30pm 20.2 SSW 5 7 1019.5 - 0.2 - Partly cloudy 10 - - - -
24/06:00pm 20.5 S 6 8 1019.5 - 0.2 - Mostly cloudy 10 - - - -
24/05:30pm 20.7 SSE 7 9 1019.4 - 0.2 - Partly cloudy 10 - - - -
24/05:00pm 21.0 S 7 10 1019.4 - 0.2 - Partly cloudy 10 - - - -
24/04:30pm 21.9 ESE 7 11 1019.2 - 0.2 - Cloudy 10 - - - -
24/04:00pm 21.8 SSE 8 11 1019.5 - 0.2 - Cloudy 10 - - - -
24/03:30pm 21.9 SSE 8 13 1019.6 - 0.2 - Partly cloudy 10 - - - -
24/03:00pm 21.8 SSE 8 11 1019.6 - 0.2 - Cloudy 10 - - - -
24/02:32pm 22.5 W 4 9 1019.8 - 0.2 - Partly cloudy 10 - - - -
24/02:30pm 22.2 WNW 4 9 1019.8 - 0.2 - Partly cloudy 10 - - - -
24/02:10pm 21.6 W 6 9 1020.1 - 0.2 - Partly cloudy 10 - - - -
24/02:00pm 22.0 SSW 6 10 1020.1 - 0.2 - Partly cloudy 10 - - - -
24/01:30pm 21.0 S 6 7 1020.5 - 0.2 - Partly cloudy 10 - - - -
24/01:15pm 20.1 S 6 9 1020.7 - 0.2 - Partly cloudy 10 - - - -
24/01:03pm 19.8 SE 9 13 1020.8 - 0.2 - Partly cloudy 5 - - - -
24/01:00pm 19.8 SE 9 15 1020.8 - 0.2 - Partly cloudy 7 - - - -
24/12:30pm 21.2 SE 10 14 1020.9 - 0.2 - Partly cloudy 10 - - - -
24/12:00pm 22.1 SE 11 17 1020.8 - 0.2 Recent precip. Mostly cloudy 10 - - - -

Other Formats:

Comma delimited format used in spreadsheet applications
http://www.bom.gov.au/fwo/IDN60701/IDN60701.95748.axf

JavaScript Object Notation format (JSON) in row-major order
http://www.bom.gov.au/fwo/IDN60701/IDN60701.95748.json